createdAt,value
2022-10-19T00:01:04.578Z,4.55
2022-10-19T00:07:08.085Z,4.65
2022-10-19T00:13:13.262Z,4.00
2022-10-19T00:19:17.845Z,3.80
2022-10-19T00:25:21.234Z,3.92
2022-10-19T00:31:26.296Z,4.43
2022-10-19T00:37:31.270Z,3.58
2022-10-19T00:43:34.602Z,3.92
2022-10-19T00:49:41.671Z,4.00
2022-10-19T00:55:45.621Z,4.50
2022-10-19T01:01:49.711Z,4.25
2022-10-19T01:07:54.658Z,4.03
2022-10-19T01:14:03.154Z,3.95
2022-10-19T01:20:33.581Z,3.55
2022-10-19T01:26:49.383Z,3.60
2022-10-19T01:33:01.393Z,3.72
2022-10-19T01:39:07.615Z,4.18
2022-10-19T01:45:15.511Z,4.22
2022-10-19T01:51:21.258Z,4.05
2022-10-19T01:57:26.073Z,4.55
2022-10-19T02:03:30.373Z,3.80
2022-10-19T02:09:35.168Z,3.75
2022-10-19T02:15:41.649Z,3.55
2022-10-19T02:21:45.071Z,4.00
2022-10-19T02:27:48.475Z,4.30
2022-10-19T02:33:53.295Z,3.88
2022-10-19T02:39:56.779Z,3.67
2022-10-19T02:46:02.901Z,3.88
2022-10-19T02:52:08.702Z,3.70
2022-10-19T02:58:12.353Z,3.95
2022-10-19T03:04:16.075Z,3.65
2022-10-19T03:10:20.880Z,3.58
2022-10-19T03:16:24.297Z,3.60
2022-10-19T03:22:27.741Z,3.92
2022-10-19T03:28:32.637Z,4.10
2022-10-19T03:34:36.108Z,3.58
2022-10-19T03:40:39.663Z,3.38
2022-10-19T03:46:44.494Z,3.13
2022-10-19T03:52:49.468Z,3.58
2022-10-19T03:58:54.422Z,3.63
2022-10-19T04:04:59.252Z,3.35
2022-10-19T04:11:04.285Z,3.55
2022-10-19T04:17:07.930Z,3.50
2022-10-19T04:23:12.707Z,3.70
2022-10-19T04:29:16.564Z,4.15
2022-10-19T04:35:20.003Z,3.60
2022-10-19T04:41:25.023Z,3.67
2022-10-19T04:47:28.389Z,3.78
2022-10-19T04:53:32.153Z,3.60
2022-10-19T04:59:37.049Z,3.92
2022-10-19T05:05:40.466Z,4.13
2022-10-19T05:11:43.796Z,3.88
2022-10-19T05:17:48.615Z,3.50
2022-10-19T05:23:53.255Z,3.63
2022-10-19T05:29:56.598Z,3.72
2022-10-19T05:36:01.634Z,4.05
2022-10-19T05:42:05.155Z,4.03
2022-10-19T05:48:08.677Z,4.20
2022-10-19T05:54:13.941Z,4.30
2022-10-19T06:00:17.545Z,4.45
2022-10-19T06:06:22.050Z,4.53
2022-10-19T06:12:26.808Z,3.95
2022-10-19T06:18:30.416Z,4.53
2022-10-19T06:24:33.833Z,4.80
2022-10-19T06:30:41.552Z,5.00
2022-10-19T06:36:45.123Z,4.28
2022-10-19T06:42:48.676Z,5.47
2022-10-19T06:48:54.260Z,4.95
2022-10-19T06:55:00.764Z,5.32
2022-10-19T07:01:04.342Z,5.53
2022-10-19T07:07:09.655Z,5.82
2022-10-19T07:13:14.062Z,4.90
2022-10-19T07:19:17.581Z,5.75
2022-10-19T07:25:22.328Z,6.60
2022-10-19T07:31:26.244Z,5.80
2022-10-19T07:37:29.786Z,5.80
2022-10-19T07:43:34.614Z,5.20
2022-10-19T07:49:38.396Z,5.97
2022-10-19T07:55:41.815Z,6.70
2022-10-19T08:01:47.786Z,6.43
2022-10-19T08:07:51.378Z,6.40
2022-10-19T08:13:55.161Z,6.28
2022-10-19T08:19:59.926Z,6.47
2022-10-19T08:26:03.279Z,6.97
2022-10-19T08:32:06.948Z,6.88
2022-10-19T08:38:12.013Z,7.25
2022-10-19T08:44:28.923Z,6.60
2022-10-19T08:50:36.023Z,6.65
2022-10-19T08:56:50.950Z,6.68
2022-10-19T09:02:59.706Z,7.68
2022-10-19T09:09:03.138Z,7.05
2022-10-19T09:15:09.267Z,6.45
2022-10-19T09:21:15.713Z,6.57
2022-10-19T09:27:22.668Z,7.03
2022-10-19T09:33:30.278Z,7.40
2022-10-19T09:39:35.813Z,6.88
2022-10-19T09:45:42.669Z,7.18
2022-10-19T09:51:52.280Z,7.05
2022-10-19T09:58:01.534Z,7.05
2022-10-19T10:04:08.809Z,6.53
2022-10-19T10:10:28.079Z,6.13
2022-10-19T10:16:36.566Z,7.03
2022-10-19T10:22:52.950Z,6.88
2022-10-19T10:29:01.310Z,7.20
2022-10-19T10:35:07.157Z,7.15
2022-10-19T10:41:13.771Z,7.35
2022-10-19T10:47:20.699Z,8.10
2022-10-19T10:53:33.699Z,7.55
2022-10-19T10:59:43.070Z,7.38
2022-10-19T11:05:53.339Z,7.82
2022-10-19T11:11:59.426Z,8.50
2022-10-19T11:18:08.483Z,8.82
2022-10-19T11:24:17.603Z,8.93
2022-10-19T11:30:22.237Z,9.18
2022-10-19T11:36:36.922Z,8.75
2022-10-19T11:49:11.731Z,8.13
2022-10-19T11:55:18.849Z,8.68
2022-10-19T12:01:30.875Z,9.93
2022-10-19T12:07:38.666Z,8.68
2022-10-19T12:13:43.744Z,8.18
2022-10-19T12:19:50.003Z,8.43
2022-10-19T12:25:53.789Z,9.23
2022-10-19T12:31:58.239Z,9.00
2022-10-19T12:38:06.518Z,8.18
2022-10-19T12:44:36.096Z,8.35
2022-10-19T12:51:03.575Z,9.10
2022-10-19T12:57:22.962Z,8.52
2022-10-19T13:03:29.819Z,9.75
2022-10-19T13:09:34.405Z,11.32
2022-10-19T13:15:59.461Z,8.70
2022-10-19T13:22:29.513Z,9.95
2022-10-19T13:28:41.081Z,9.25
2022-10-19T13:34:44.568Z,8.10
2022-10-19T13:40:58.420Z,8.70
2022-10-19T13:47:11.324Z,9.70
2022-10-19T13:53:23.807Z,8.15
2022-10-19T13:59:43.623Z,8.32
2022-10-19T14:06:05.003Z,7.93
2022-10-19T14:12:11.651Z,7.30
2022-10-19T14:18:24.084Z,8.45
2022-10-19T14:24:30.304Z,9.98
2022-10-19T14:30:36.750Z,9.88
2022-10-19T14:36:41.449Z,8.98
2022-10-19T14:42:45.642Z,9.32
2022-10-19T14:48:52.183Z,10.00
2022-10-19T14:54:57.056Z,8.85
2022-10-19T15:01:00.533Z,9.15
2022-10-19T15:07:06.940Z,9.63
2022-10-19T15:13:15.585Z,10.30
2022-10-19T15:19:21.137Z,10.35
2022-10-19T15:25:33.458Z,8.68
2022-10-19T15:31:37.275Z,11.27
2022-10-19T15:37:43.972Z,12.57
2022-10-19T15:43:49.568Z,11.02
2022-10-19T15:49:54.039Z,10.98
2022-10-19T15:55:57.481Z,11.05
2022-10-19T16:02:02.378Z,10.57
2022-10-19T16:08:08.935Z,11.30
2022-10-19T16:20:19.958Z,13.50
2022-10-19T16:26:25.312Z,11.48
2022-10-19T16:32:28.706Z,10.50
2022-10-19T16:38:33.479Z,10.73
2022-10-19T16:44:36.857Z,11.70
2022-10-19T16:50:40.626Z,12.35
2022-10-19T16:56:46.455Z,12.73
2022-10-19T17:02:49.788Z,11.82
2022-10-19T17:09:23.645Z,11.90
2022-10-19T17:15:41.621Z,11.52
2022-10-19T17:21:42.748Z,11.65
2022-10-19T17:27:46.147Z,12.48
2022-10-19T17:33:51.035Z,10.30
2022-10-19T17:39:54.430Z,9.13
2022-10-19T17:46:01.042Z,12.18
2022-10-19T17:52:05.789Z,13.88
2022-10-19T17:58:09.136Z,14.25
2022-10-19T18:04:12.567Z,12.95
2022-10-19T18:10:17.266Z,15.35
2022-10-19T18:16:21.414Z,14.68
2022-10-19T18:22:24.955Z,12.45
2022-10-19T18:28:31.607Z,13.23
2022-10-19T18:34:35.109Z,14.18
2022-10-19T18:40:39.428Z,12.50
2022-10-19T18:46:45.463Z,15.95
2022-10-19T18:52:49.378Z,16.75
2022-10-19T18:58:53.027Z,15.07
2022-10-19T19:04:58.056Z,14.07
2022-10-19T19:11:11.345Z,16.52
2022-10-19T19:17:15.242Z,16.98
2022-10-19T19:23:20.164Z,19.50
2022-10-19T19:29:23.652Z,18.77
2022-10-19T19:35:27.194Z,19.65
2022-10-19T19:41:34.202Z,16.27
2022-10-19T19:47:38.082Z,15.27
2022-10-19T19:53:41.870Z,15.35
2022-10-19T19:59:46.807Z,15.18
2022-10-19T20:06:08.932Z,15.38
2022-10-19T20:12:12.730Z,16.33
2022-10-19T20:18:17.523Z,14.90
2022-10-19T20:24:20.919Z,15.85
2022-10-19T20:30:24.351Z,15.25
2022-10-19T20:36:29.161Z,16.27
2022-10-19T20:42:35.105Z,17.48
2022-10-19T20:48:39.995Z,22.38
2022-10-19T20:54:49.181Z,19.27
2022-10-19T21:00:52.614Z,18.45
2022-10-19T21:06:56.084Z,18.80
2022-10-19T21:13:01.012Z,19.33
2022-10-19T21:19:05.835Z,20.92
2022-10-19T21:25:11.425Z,16.75
2022-10-19T21:31:16.304Z,19.95
2022-10-19T21:37:19.803Z,19.92
2022-10-19T21:43:23.202Z,20.42
2022-10-19T21:49:28.107Z,18.60
2022-10-19T21:55:34.778Z,16.33
2022-10-19T22:01:40.374Z,14.68
2022-10-19T22:07:46.321Z,14.23
2022-10-19T22:13:49.992Z,14.23
2022-10-19T22:19:55.729Z,13.73
2022-10-19T22:26:00.848Z,13.48
2022-10-19T22:32:04.251Z,14.80
2022-10-19T22:38:07.621Z,13.43
2022-10-19T22:44:12.613Z,12.27
2022-10-19T22:50:16.214Z,13.20
2022-10-19T22:56:19.855Z,13.32
2022-10-19T23:02:24.677Z,13.23
2022-10-19T23:08:28.476Z,13.60
2022-10-19T23:14:32.236Z,13.48
2022-10-19T23:20:37.863Z,15.05
2022-10-19T23:26:41.356Z,15.27
2022-10-19T23:32:44.840Z,17.52
2022-10-19T23:38:50.634Z,18.27
2022-10-19T23:44:54.207Z,17.17
2022-10-19T23:50:58.953Z,19.33
2022-10-19T23:57:04.108Z,18.83
